This is the latest recevied weather packets stored in our database for station/object DK4DO-10. If no packets are shown the sender has not sent any weather packets the latest 10 day(s).
| Time | Temp. | Humidity | Pressure | Rain* | Wind** | Luminosity | Snow |
|---|---|---|---|---|---|---|---|
| 1777955588 | 16.67° C | 50% | 1004.8 hPa | - | - | - | - |
| 1777954988 | 16.67° C | 51% | 1004.7 hPa | - | - | - | - |
| 1777954388 | 16.67° C | 51% | 1004.8 hPa | - | - | - | - |
| 1777953787 | 16.67° C | 51% | 1004.9 hPa | - | - | - | - |
| 1777953187 | 16.11° C | 53% | 1004.8 hPa | - | - | - | - |
| 1777952587 | 16.11° C | 52% | 1004.9 hPa | - | - | - | - |
| 1777951987 | 16.67° C | 51% | 1005 hPa | - | - | - | - |
| 1777951387 | 16.11° C | 53% | 1004.9 hPa | - | - | - | - |
| 1777950786 | 15.56° C | 54% | 1005.1 hPa | - | - | - | - |
| 1777950186 | 15.56° C | 54% | 1005.1 hPa | - | - | - | - |
| 1777949586 | 15.56° C | 55% | 1005.2 hPa | - | - | - | - |
| 1777948986 | 15.56° C | 54% | 1005.2 hPa | - | - | - | - |
| 1777948386 | 15.56° C | 55% | 1005.3 hPa | - | - | - | - |
| 1777947785 | 15° C | 57% | 1005.3 hPa | - | - | - | - |
| 1777947185 | 16.11° C | 54% | 1005.3 hPa | - | - | - | - |
| 1777946585 | 16.67° C | 52% | 1005.5 hPa | - | - | - | - |
| 1777945984 | 16.11° C | 53% | 1005.5 hPa | - | - | - | - |
| 1777945384 | 16.67° C | 52% | 1005.5 hPa | - | - | - | - |
| 1777944784 | 16.67° C | 52% | 1005.5 hPa | - | - | - | - |
| 1777944184 | 16.67° C | 53% | 1005.6 hPa | - | - | - | - |
| 1777943584 | 16.67° C | 53% | 1005.6 hPa | - | - | - | - |
| 1777942982 | 16.67° C | 53% | 1005.8 hPa | - | - | - | - |
| 1777942382 | 16.11° C | 54% | 1005.9 hPa | - | - | - | - |
| 1777941782 | 16.67° C | 53% | 1005.9 hPa | - | - | - | - |
| 1777941182 | 16.67° C | 53% | 1005.9 hPa | - | - | - | - |
* Rain since midnight (hover to see other rain measurements)
** Current wind speed in m/s (hover to see current wind gust speed)